Portada
METAR-TAF:

METAR-TAF

Aeropuertos :

Lanzarote, España

Aeropuerto de Lanzarote

latitud: 28-57N, longitud: 013-36W, altitud: 14 m

Observación

El informe se hizo hace 43 minutos, a las 16:30 UTC
Viento 15 kt del norte
Temperatura 24°C
Humedad 50%
Presión 1020 hPa
Visibilidad 10 km o más
Nubes dispersas a una altura de 4000 ft

METAR: GCRR 271630Z 01015KT 9999 SCT040 24/13 Q1020

Hora: 17:13 (17:13 UTC)

Pronóstico

El informe se hizo hace 3 horas y 13 minutos, a las 14:00 UTC
Pronóstico válido del 27 a las 15 UTC al 28 a las 15 UTC
Viento 12 kt del norte-noreste
Visibilidad 10 km o más
Cielo nuboso a una altura de 3000 ft

TAF: GCRR 271400Z 2715/2815 02012KT 9999 BKN030 TX26/2814Z TN18/2807Z

Observaciones y pronósticos meteorológicos de más de 4000 aeropuertos (mensajes METAR y TAF).

Los puntos amarillos y rojos representan las estaciones disponibles.

Ponga el ratón en el punto deseado para ver el nombre de la estación.

Haga clic para ver las observaciones y los pronósticos meteorológicos.

Para cambiar el mapa : haga clic en los botones verdes con una cruz de color negro para hacer un zoom, en el botón verde con un guión para alejar o en las flechas verdes para mapas adyacentes.


METAR-TAF: